sensor_id;sensor_type;location;lat;lon;timestamp;temperature;humidity
4324;DHT22;2175;51.018;6.994;2023-03-13T00:01:00;9.70;99.90
4324;DHT22;2175;51.018;6.994;2023-03-13T00:03:26;9.70;99.90
4324;DHT22;2175;51.018;6.994;2023-03-13T00:06:00;9.70;99.90
4324;DHT22;2175;51.018;6.994;2023-03-13T00:08:29;9.80;99.90
4324;DHT22;2175;51.018;6.994;2023-03-13T00:10:55;9.80;99.90
4324;DHT22;2175;51.018;6.994;2023-03-13T00:13:21;9.80;99.90
4324;DHT22;2175;51.018;6.994;2023-03-13T00:15:47;9.90;99.90
4324;DHT22;2175;51.018;6.994;2023-03-13T00:18:12;9.80;99.90
4324;DHT22;2175;51.018;6.994;2023-03-13T00:20:59;9.90;99.90
4324;DHT22;2175;51.018;6.994;2023-03-13T00:23:26;10.00;99.90
4324;DHT22;2175;51.018;6.994;2023-03-13T00:26:00;10.00;99.90
4324;DHT22;2175;51.018;6.994;2023-03-13T00:28:31;10.00;99.90
4324;DHT22;2175;51.018;6.994;2023-03-13T00:31:16;10.00;99.90
4324;DHT22;2175;51.018;6.994;2023-03-13T00:33:47;10.00;99.90
4324;DHT22;2175;51.018;6.994;2023-03-13T00:36:22;10.10;99.90
4324;DHT22;2175;51.018;6.994;2023-03-13T00:38:48;10.10;99.90
4324;DHT22;2175;51.018;6.994;2023-03-13T00:41:20;10.30;99.90
4324;DHT22;2175;51.018;6.994;2023-03-13T00:43:48;10.40;99.90
4324;DHT22;2175;51.018;6.994;2023-03-13T00:46:15;10.60;99.90
4324;DHT22;2175;51.018;6.994;2023-03-13T00:48:41;10.70;99.90
4324;DHT22;2175;51.018;6.994;2023-03-13T00:51:07;10.70;99.90
4324;DHT22;2175;51.018;6.994;2023-03-13T00:53:34;10.70;99.90
4324;DHT22;2175;51.018;6.994;2023-03-13T00:56:02;10.80;99.90
4324;DHT22;2175;51.018;6.994;2023-03-13T00:58:30;10.70;99.90
4324;DHT22;2175;51.018;6.994;2023-03-13T01:00:56;10.70;99.90
4324;DHT22;2175;51.018;6.994;2023-03-13T01:03:23;10.80;99.90
4324;DHT22;2175;51.018;6.994;2023-03-13T01:05:59;10.70;99.90
4324;DHT22;2175;51.018;6.994;2023-03-13T01:08:26;10.70;99.90
4324;DHT22;2175;51.018;6.994;2023-03-13T01:11:07;10.70;99.90
4324;DHT22;2175;51.018;6.994;2023-03-13T01:13:33;10.70;99.90
4324;DHT22;2175;51.018;6.994;2023-03-13T01:16:07;10.80;99.90
4324;DHT22;2175;51.018;6.994;2023-03-13T01:18:33;10.90;99.90
4324;DHT22;2175;51.018;6.994;2023-03-13T01:20:59;10.90;99.90
4324;DHT22;2175;51.018;6.994;2023-03-13T01:23:26;10.90;99.90
4324;DHT22;2175;51.018;6.994;2023-03-13T01:25:55;10.90;99.90
4324;DHT22;2175;51.018;6.994;2023-03-13T01:31:35;10.90;99.90
4324;DHT22;2175;51.018;6.994;2023-03-13T01:34:03;10.90;99.90
4324;DHT22;2175;51.018;6.994;2023-03-13T01:36:29;10.80;99.90
4324;DHT22;2175;51.018;6.994;2023-03-13T01:38:57;10.80;99.90
4324;DHT22;2175;51.018;6.994;2023-03-13T01:41:23;10.70;99.90
4324;DHT22;2175;51.018;6.994;2023-03-13T01:43:49;10.60;99.90
4324;DHT22;2175;51.018;6.994;2023-03-13T01:46:31;10.50;99.90
4324;DHT22;2175;51.018;6.994;2023-03-13T01:49:06;10.40;99.90
4324;DHT22;2175;51.018;6.994;2023-03-13T01:51:47;10.40;99.90
4324;DHT22;2175;51.018;6.994;2023-03-13T01:54:16;10.30;99.90
4324;DHT22;2175;51.018;6.994;2023-03-13T01:56:53;10.30;99.90
4324;DHT22;2175;51.018;6.994;2023-03-13T01:59:33;10.30;99.90
4324;DHT22;2175;51.018;6.994;2023-03-13T02:02:01;10.30;99.90
4324;DHT22;2175;51.018;6.994;2023-03-13T02:04:33;10.30;99.90
4324;DHT22;2175;51.018;6.994;2023-03-13T02:07:02;10.30;99.90
4324;DHT22;2175;51.018;6.994;2023-03-13T02:09:32;10.30;99.90
4324;DHT22;2175;51.018;6.994;2023-03-13T02:12:09;10.40;99.90
4324;DHT22;2175;51.018;6.994;2023-03-13T02:14:37;10.40;99.90
4324;DHT22;2175;51.018;6.994;2023-03-13T02:17:04;10.70;99.90
4324;DHT22;2175;51.018;6.994;2023-03-13T02:19:46;10.80;99.90
4324;DHT22;2175;51.018;6.994;2023-03-13T02:22:35;11.00;99.90
4324;DHT22;2175;51.018;6.994;2023-03-13T02:28:00;11.20;99.90
4324;DHT22;2175;51.018;6.994;2023-03-13T02:30:27;11.10;99.90
4324;DHT22;2175;51.018;6.994;2023-03-13T02:33:05;11.10;99.90
4324;DHT22;2175;51.018;6.994;2023-03-13T02:35:31;11.10;99.90
4324;DHT22;2175;51.018;6.994;2023-03-13T02:38:01;11.10;99.90
4324;DHT22;2175;51.018;6.994;2023-03-13T02:40:35;11.10;99.90
4324;DHT22;2175;51.018;6.994;2023-03-13T02:43:06;11.00;99.90
4324;DHT22;2175;51.018;6.994;2023-03-13T02:45:33;11.00;99.90
4324;DHT22;2175;51.018;6.994;2023-03-13T02:47:59;10.90;99.90
4324;DHT22;2175;51.018;6.994;2023-03-13T02:50:25;10.90;99.90
4324;DHT22;2175;51.018;6.994;2023-03-13T02:52:54;10.80;99.90
4324;DHT22;2175;51.018;6.994;2023-03-13T02:55:36;10.80;99.90
4324;DHT22;2175;51.018;6.994;2023-03-13T02:58:11;10.80;99.90
4324;DHT22;2175;51.018;6.994;2023-03-13T03:00:37;10.80;99.90
4324;DHT22;2175;51.018;6.994;2023-03-13T03:03:03;10.80;99.90
4324;DHT22;2175;51.018;6.994;2023-03-13T03:05:34;10.90;99.90
4324;DHT22;2175;51.018;6.994;2023-03-13T03:08:00;10.80;99.90
4324;DHT22;2175;51.018;6.994;2023-03-13T03:10:35;10.80;99.90
4324;DHT22;2175;51.018;6.994;2023-03-13T03:13:01;10.80;99.90
4324;DHT22;2175;51.018;6.994;2023-03-13T03:15:26;10.80;99.90
4324;DHT22;2175;51.018;6.994;2023-03-13T03:18:06;10.80;99.90
4324;DHT22;2175;51.018;6.994;2023-03-13T03:20:32;10.90;99.90
4324;DHT22;2175;51.018;6.994;2023-03-13T03:22:57;10.90;99.90
4324;DHT22;2175;51.018;6.994;2023-03-13T03:25:26;10.90;99.90
4324;DHT22;2175;51.018;6.994;2023-03-13T03:27:51;11.00;99.90
4324;DHT22;2175;51.018;6.994;2023-03-13T03:30:17;11.00;99.90
4324;DHT22;2175;51.018;6.994;2023-03-13T03:32:43;11.00;99.90
4324;DHT22;2175;51.018;6.994;2023-03-13T03:35:13;11.00;99.90
4324;DHT22;2175;51.018;6.994;2023-03-13T03:37:38;11.00;99.90
4324;DHT22;2175;51.018;6.994;2023-03-13T03:40:07;11.10;99.90
4324;DHT22;2175;51.018;6.994;2023-03-13T03:42:34;11.00;99.90
4324;DHT22;2175;51.018;6.994;2023-03-13T03:45:00;11.10;99.90
4324;DHT22;2175;51.018;6.994;2023-03-13T03:47:25;11.10;99.90
4324;DHT22;2175;51.018;6.994;2023-03-13T03:49:51;11.10;99.90
4324;DHT22;2175;51.018;6.994;2023-03-13T03:52:16;11.20;99.90
4324;DHT22;2175;51.018;6.994;2023-03-13T03:54:43;11.20;99.90
4324;DHT22;2175;51.018;6.994;2023-03-13T03:57:09;11.20;99.90
4324;DHT22;2175;51.018;6.994;2023-03-13T03:59:34;11.20;99.90
4324;DHT22;2175;51.018;6.994;2023-03-13T04:02:00;11.30;99.90
4324;DHT22;2175;51.018;6.994;2023-03-13T04:04:26;11.30;99.90
4324;DHT22;2175;51.018;6.994;2023-03-13T04:06:51;11.30;99.90
4324;DHT22;2175;51.018;6.994;2023-03-13T04:09:17;11.40;99.90
4324;DHT22;2175;51.018;6.994;2023-03-13T04:11:49;11.40;99.90
4324;DHT22;2175;51.018;6.994;2023-03-13T04:14:15;11.40;99.90
4324;DHT22;2175;51.018;6.994;2023-03-13T04:16:41;11.40;99.90
4324;DHT22;2175;51.018;6.994;2023-03-13T04:19:06;11.40;99.90
4324;DHT22;2175;51.018;6.994;2023-03-13T04:21:32;11.50;99.90
4324;DHT22;2175;51.018;6.994;2023-03-13T04:23:58;11.50;99.90
4324;DHT22;2175;51.018;6.994;2023-03-13T04:26:28;11.50;99.90
4324;DHT22;2175;51.018;6.994;2023-03-13T04:28:54;11.50;99.90
4324;DHT22;2175;51.018;6.994;2023-03-13T04:31:19;11.60;99.90
4324;DHT22;2175;51.018;6.994;2023-03-13T04:33:45;11.60;99.90
4324;DHT22;2175;51.018;6.994;2023-03-13T04:36:11;11.70;99.90
4324;DHT22;2175;51.018;6.994;2023-03-13T04:38:36;11.70;99.90
4324;DHT22;2175;51.018;6.994;2023-03-13T04:41:18;11.70;99.90
4324;DHT22;2175;51.018;6.994;2023-03-13T04:43:44;11.70;99.90
4324;DHT22;2175;51.018;6.994;2023-03-13T04:46:09;11.60;99.90
4324;DHT22;2175;51.018;6.994;2023-03-13T04:49:04;11.70;99.90
4324;DHT22;2175;51.018;6.994;2023-03-13T04:51:29;11.70;99.90
4324;DHT22;2175;51.018;6.994;2023-03-13T04:53:55;11.70;99.90
4324;DHT22;2175;51.018;6.994;2023-03-13T04:56:25;11.70;99.90
4324;DHT22;2175;51.018;6.994;2023-03-13T04:58:52;11.80;99.90
4324;DHT22;2175;51.018;6.994;2023-03-13T05:01:18;11.70;99.90
4324;DHT22;2175;51.018;6.994;2023-03-13T05:03:44;11.70;99.90
4324;DHT22;2175;51.018;6.994;2023-03-13T05:06:10;11.80;99.90
4324;DHT22;2175;51.018;6.994;2023-03-13T05:08:35;11.80;99.90
4324;DHT22;2175;51.018;6.994;2023-03-13T05:11:02;11.80;99.90
4324;DHT22;2175;51.018;6.994;2023-03-13T05:13:28;11.80;99.90
4324;DHT22;2175;51.018;6.994;2023-03-13T05:15:53;11.90;99.90
4324;DHT22;2175;51.018;6.994;2023-03-13T05:18:19;11.90;99.90
4324;DHT22;2175;51.018;6.994;2023-03-13T05:20:44;11.90;99.90
4324;DHT22;2175;51.018;6.994;2023-03-13T05:23:10;11.90;99.90
4324;DHT22;2175;51.018;6.994;2023-03-13T05:25:36;12.00;99.90
4324;DHT22;2175;51.018;6.994;2023-03-13T05:28:02;12.00;99.90
4324;DHT22;2175;51.018;6.994;2023-03-13T05:30:28;12.00;99.90
4324;DHT22;2175;51.018;6.994;2023-03-13T05:32:53;12.10;99.90
4324;DHT22;2175;51.018;6.994;2023-03-13T05:35:19;12.10;99.90
4324;DHT22;2175;51.018;6.994;2023-03-13T05:38:08;12.10;99.90
4324;DHT22;2175;51.018;6.994;2023-03-13T05:40:33;12.10;99.90
4324;DHT22;2175;51.018;6.994;2023-03-13T05:42:59;12.20;99.90
4324;DHT22;2175;51.018;6.994;2023-03-13T05:45:24;12.20;99.90
4324;DHT22;2175;51.018;6.994;2023-03-13T05:47:50;12.20;99.90
4324;DHT22;2175;51.018;6.994;2023-03-13T05:50:16;12.20;99.90
4324;DHT22;2175;51.018;6.994;2023-03-13T05:52:42;12.20;99.90
4324;DHT22;2175;51.018;6.994;2023-03-13T05:55:07;12.10;99.90
4324;DHT22;2175;51.018;6.994;2023-03-13T05:57:37;12.20;99.90
4324;DHT22;2175;51.018;6.994;2023-03-13T06:00:05;12.20;99.90
4324;DHT22;2175;51.018;6.994;2023-03-13T06:02:35;12.30;99.90
4324;DHT22;2175;51.018;6.994;2023-03-13T06:05:00;12.30;99.90
4324;DHT22;2175;51.018;6.994;2023-03-13T06:07:26;12.20;99.90
4324;DHT22;2175;51.018;6.994;2023-03-13T06:09:52;12.20;99.90
4324;DHT22;2175;51.018;6.994;2023-03-13T06:12:19;12.20;99.90
4324;DHT22;2175;51.018;6.994;2023-03-13T06:14:47;12.20;99.90
4324;DHT22;2175;51.018;6.994;2023-03-13T06:17:12;12.30;99.90
4324;DHT22;2175;51.018;6.994;2023-03-13T06:19:38;12.30;99.90
4324;DHT22;2175;51.018;6.994;2023-03-13T06:22:04;12.30;99.90
4324;DHT22;2175;51.018;6.994;2023-03-13T06:24:29;12.30;99.90
4324;DHT22;2175;51.018;6.994;2023-03-13T06:26:55;12.30;99.90
4324;DHT22;2175;51.018;6.994;2023-03-13T06:29:21;12.30;99.90
4324;DHT22;2175;51.018;6.994;2023-03-13T06:31:48;12.30;99.90
4324;DHT22;2175;51.018;6.994;2023-03-13T06:34:14;12.40;99.90
4324;DHT22;2175;51.018;6.994;2023-03-13T06:36:40;12.30;99.90
4324;DHT22;2175;51.018;6.994;2023-03-13T06:39:05;12.40;99.90
4324;DHT22;2175;51.018;6.994;2023-03-13T06:41:37;12.40;99.90
4324;DHT22;2175;51.018;6.994;2023-03-13T06:44:04;12.40;99.90
4324;DHT22;2175;51.018;6.994;2023-03-13T06:46:30;12.50;99.90
4324;DHT22;2175;51.018;6.994;2023-03-13T06:48:56;12.60;99.90
4324;DHT22;2175;51.018;6.994;2023-03-13T06:51:27;12.60;99.90
4324;DHT22;2175;51.018;6.994;2023-03-13T06:53:53;12.60;99.90
4324;DHT22;2175;51.018;6.994;2023-03-13T06:56:22;12.60;99.90
4324;DHT22;2175;51.018;6.994;2023-03-13T06:58:49;12.70;99.90
4324;DHT22;2175;51.018;6.994;2023-03-13T07:01:16;12.60;99.90
4324;DHT22;2175;51.018;6.994;2023-03-13T07:03:42;12.60;99.90
4324;DHT22;2175;51.018;6.994;2023-03-13T07:06:09;12.60;99.90
4324;DHT22;2175;51.018;6.994;2023-03-13T07:08:44;12.60;99.90
4324;DHT22;2175;51.018;6.994;2023-03-13T07:11:37;12.70;99.90
4324;DHT22;2175;51.018;6.994;2023-03-13T07:14:03;12.70;99.90
4324;DHT22;2175;51.018;6.994;2023-03-13T07:16:29;12.80;99.90
4324;DHT22;2175;51.018;6.994;2023-03-13T07:18:54;12.80;99.90
4324;DHT22;2175;51.018;6.994;2023-03-13T07:21:20;12.80;99.90
4324;DHT22;2175;51.018;6.994;2023-03-13T07:23:46;12.90;99.90
4324;DHT22;2175;51.018;6.994;2023-03-13T07:26:13;12.90;99.90
4324;DHT22;2175;51.018;6.994;2023-03-13T07:28:40;13.00;99.90
4324;DHT22;2175;51.018;6.994;2023-03-13T07:33:39;13.10;99.90
4324;DHT22;2175;51.018;6.994;2023-03-13T07:36:06;13.10;99.90
4324;DHT22;2175;51.018;6.994;2023-03-13T07:38:32;13.10;99.90
4324;DHT22;2175;51.018;6.994;2023-03-13T07:40:58;13.20;99.90
4324;DHT22;2175;51.018;6.994;2023-03-13T07:43:24;13.30;99.90
4324;DHT22;2175;51.018;6.994;2023-03-13T07:48:20;13.60;99.90
4324;DHT22;2175;51.018;6.994;2023-03-13T07:50:56;13.70;99.90
4324;DHT22;2175;51.018;6.994;2023-03-13T07:53:22;13.80;99.90
4324;DHT22;2175;51.018;6.994;2023-03-13T07:56:09;13.80;99.40
4324;DHT22;2175;51.018;6.994;2023-03-13T07:58:36;13.80;94.30
4324;DHT22;2175;51.018;6.994;2023-03-13T08:01:09;13.80;98.90
4324;DHT22;2175;51.018;6.994;2023-03-13T08:03:35;13.80;92.20
4324;DHT22;2175;51.018;6.994;2023-03-13T08:06:04;13.80;89.60
4324;DHT22;2175;51.018;6.994;2023-03-13T08:08:30;13.80;93.50
4324;DHT22;2175;51.018;6.994;2023-03-13T08:11:20;13.80;88.40
4324;DHT22;2175;51.018;6.994;2023-03-13T08:13:47;13.80;92.00
4324;DHT22;2175;51.018;6.994;2023-03-13T08:16:26;13.70;89.80
4324;DHT22;2175;51.018;6.994;2023-03-13T08:18:55;13.70;99.90
4324;DHT22;2175;51.018;6.994;2023-03-13T08:21:34;13.70;93.00
4324;DHT22;2175;51.018;6.994;2023-03-13T08:24:05;13.70;91.40
4324;DHT22;2175;51.018;6.994;2023-03-13T08:26:33;13.70;85.80
4324;DHT22;2175;51.018;6.994;2023-03-13T08:29:06;13.70;91.60
4324;DHT22;2175;51.018;6.994;2023-03-13T08:31:36;13.70;87.70
4324;DHT22;2175;51.018;6.994;2023-03-13T08:34:12;13.70;95.10
4324;DHT22;2175;51.018;6.994;2023-03-13T08:36:39;13.70;85.60
4324;DHT22;2175;51.018;6.994;2023-03-13T08:39:08;13.80;85.90
4324;DHT22;2175;51.018;6.994;2023-03-13T08:41:36;13.80;93.60
4324;DHT22;2175;51.018;6.994;2023-03-13T08:44:03;13.80;90.90
4324;DHT22;2175;51.018;6.994;2023-03-13T08:46:34;13.80;92.60
4324;DHT22;2175;51.018;6.994;2023-03-13T08:49:05;13.80;96.20
4324;DHT22;2175;51.018;6.994;2023-03-13T08:51:35;13.80;93.50
4324;DHT22;2175;51.018;6.994;2023-03-13T08:54:02;13.90;80.90
4324;DHT22;2175;51.018;6.994;2023-03-13T08:59:13;14.00;93.70
4324;DHT22;2175;51.018;6.994;2023-03-13T09:01:54;14.00;90.60
4324;DHT22;2175;51.018;6.994;2023-03-13T09:04:20;14.00;95.50
4324;DHT22;2175;51.018;6.994;2023-03-13T09:06:46;14.00;98.30
4324;DHT22;2175;51.018;6.994;2023-03-13T09:09:12;14.00;95.90
4324;DHT22;2175;51.018;6.994;2023-03-13T09:11:41;14.00;98.50
4324;DHT22;2175;51.018;6.994;2023-03-13T09:14:07;14.00;99.20
4324;DHT22;2175;51.018;6.994;2023-03-13T09:16:34;14.20;94.30
4324;DHT22;2175;51.018;6.994;2023-03-13T09:19:00;14.20;95.90
4324;DHT22;2175;51.018;6.994;2023-03-13T09:21:32;14.20;92.40
4324;DHT22;2175;51.018;6.994;2023-03-13T09:23:58;14.10;99.90
4324;DHT22;2175;51.018;6.994;2023-03-13T09:26:24;14.00;99.90
4324;DHT22;2175;51.018;6.994;2023-03-13T09:28:51;14.10;99.90
4324;DHT22;2175;51.018;6.994;2023-03-13T09:31:25;14.20;99.90
4324;DHT22;2175;51.018;6.994;2023-03-13T09:33:51;14.10;99.90
4324;DHT22;2175;51.018;6.994;2023-03-13T09:36:18;14.20;99.90
4324;DHT22;2175;51.018;6.994;2023-03-13T09:38:44;14.10;99.90
4324;DHT22;2175;51.018;6.994;2023-03-13T09:43:52;14.20;99.90
4324;DHT22;2175;51.018;6.994;2023-03-13T09:46:26;14.30;99.90
4324;DHT22;2175;51.018;6.994;2023-03-13T09:49:01;14.40;99.90
4324;DHT22;2175;51.018;6.994;2023-03-13T09:51:38;14.40;99.90
4324;DHT22;2175;51.018;6.994;2023-03-13T09:54:32;14.40;99.90
4324;DHT22;2175;51.018;6.994;2023-03-13T09:57:09;14.50;99.90
4324;DHT22;2175;51.018;6.994;2023-03-13T10:02:34;14.50;99.90
4324;DHT22;2175;51.018;6.994;2023-03-13T10:07:32;14.70;99.90
4324;DHT22;2175;51.018;6.994;2023-03-13T10:09:59;14.70;99.90
4324;DHT22;2175;51.018;6.994;2023-03-13T10:12:32;14.80;96.50
4324;DHT22;2175;51.018;6.994;2023-03-13T10:17:46;14.80;99.90
4324;DHT22;2175;51.018;6.994;2023-03-13T10:20:22;14.90;99.90
4324;DHT22;2175;51.018;6.994;2023-03-13T10:22:56;15.00;99.90
4324;DHT22;2175;51.018;6.994;2023-03-13T10:25:35;15.00;98.70
4324;DHT22;2175;51.018;6.994;2023-03-13T10:28:03;15.30;93.40
4324;DHT22;2175;51.018;6.994;2023-03-13T10:30:32;15.50;39.40
4324;DHT22;2175;51.018;6.994;2023-03-13T10:33:19;15.80;31.80
4324;DHT22;2175;51.018;6.994;2023-03-13T10:35:45;15.90;1.00
4324;DHT22;2175;51.018;6.994;2023-03-13T10:38:13;15.80;1.00
4324;DHT22;2175;51.018;6.994;2023-03-13T10:40:39;15.70;1.00
4324;DHT22;2175;51.018;6.994;2023-03-13T10:43:17;15.70;5.60
4324;DHT22;2175;51.018;6.994;2023-03-13T10:45:43;15.70;1.00
4324;DHT22;2175;51.018;6.994;2023-03-13T10:48:13;15.80;1.00
4324;DHT22;2175;51.018;6.994;2023-03-13T10:50:44;15.80;1.00
4324;DHT22;2175;51.018;6.994;2023-03-13T10:53:34;15.80;1.00
4324;DHT22;2175;51.018;6.994;2023-03-13T10:56:13;15.70;1.00
4324;DHT22;2175;51.018;6.994;2023-03-13T11:01:25;16.00;1.00
4324;DHT22;2175;51.018;6.994;2023-03-13T11:03:53;16.20;1.00
4324;DHT22;2175;51.018;6.994;2023-03-13T11:06:38;16.30;1.00
4324;DHT22;2175;51.018;6.994;2023-03-13T11:11:49;16.40;1.00
4324;DHT22;2175;51.018;6.994;2023-03-13T11:14:23;16.40;1.00
4324;DHT22;2175;51.018;6.994;2023-03-13T11:16:51;16.30;1.00
4324;DHT22;2175;51.018;6.994;2023-03-13T11:19:43;16.30;1.00
4324;DHT22;2175;51.018;6.994;2023-03-13T11:22:26;16.30;1.00
4324;DHT22;2175;51.018;6.994;2023-03-13T11:33:19;16.30;1.00
4324;DHT22;2175;51.018;6.994;2023-03-13T11:38:43;16.30;1.00
4324;DHT22;2175;51.018;6.994;2023-03-13T11:41:29;16.40;1.00
4324;DHT22;2175;51.018;6.994;2023-03-13T11:47:47;16.60;1.00
4324;DHT22;2175;51.018;6.994;2023-03-13T11:50:54;16.70;1.00
4324;DHT22;2175;51.018;6.994;2023-03-13T11:56:39;16.70;1.00
4324;DHT22;2175;51.018;6.994;2023-03-13T11:59:16;16.70;1.00
4324;DHT22;2175;51.018;6.994;2023-03-13T12:01:59;16.90;1.00
4324;DHT22;2175;51.018;6.994;2023-03-13T12:04:29;16.90;99.90
4324;DHT22;2175;51.018;6.994;2023-03-13T12:07:04;16.80;1.00
4324;DHT22;2175;51.018;6.994;2023-03-13T12:09:36;16.60;1.00
4324;DHT22;2175;51.018;6.994;2023-03-13T12:12:17;16.50;1.00
4324;DHT22;2175;51.018;6.994;2023-03-13T12:17:45;16.50;99.90
4324;DHT22;2175;51.018;6.994;2023-03-13T12:20:27;16.50;99.90
4324;DHT22;2175;51.018;6.994;2023-03-13T12:23:34;16.40;99.90
4324;DHT22;2175;51.018;6.994;2023-03-13T12:26:20;16.40;99.90
4324;DHT22;2175;51.018;6.994;2023-03-13T12:31:33;16.50;99.90
4324;DHT22;2175;51.018;6.994;2023-03-13T12:34:26;16.70;99.90
4324;DHT22;2175;51.018;6.994;2023-03-13T12:37:01;16.80;99.90
4324;DHT22;2175;51.018;6.994;2023-03-13T12:39:42;16.60;27.50
4324;DHT22;2175;51.018;6.994;2023-03-13T12:45:06;16.50;99.90
4324;DHT22;2175;51.018;6.994;2023-03-13T12:47:45;16.70;99.90
4324;DHT22;2175;51.018;6.994;2023-03-13T12:57:04;16.90;1.00
4324;DHT22;2175;51.018;6.994;2023-03-13T12:59:31;17.10;1.00
4324;DHT22;2175;51.018;6.994;2023-03-13T13:01:58;17.10;1.00
4324;DHT22;2175;51.018;6.994;2023-03-13T13:04:30;17.10;1.00
4324;DHT22;2175;51.018;6.994;2023-03-13T13:07:02;17.10;99.90
4324;DHT22;2175;51.018;6.994;2023-03-13T13:09:37;16.90;1.00
4324;DHT22;2175;51.018;6.994;2023-03-13T13:12:22;16.80;1.00
4324;DHT22;2175;51.018;6.994;2023-03-13T13:18:01;16.70;1.00
4324;DHT22;2175;51.018;6.994;2023-03-13T13:20:28;16.70;99.90
4324;DHT22;2175;51.018;6.994;2023-03-13T13:22:55;16.70;32.50
4324;DHT22;2175;51.018;6.994;2023-03-13T13:25:32;16.80;99.90
4324;DHT22;2175;51.018;6.994;2023-03-13T13:30:40;16.70;99.90
4324;DHT22;2175;51.018;6.994;2023-03-13T13:36:24;16.60;99.90
4324;DHT22;2175;51.018;6.994;2023-03-13T13:38:30;16.50;99.90
4324;DHT22;2175;51.018;6.994;2023-03-13T13:43:48;16.20;1.00
4324;DHT22;2175;51.018;6.994;2023-03-13T13:46:29;16.30;1.00
4324;DHT22;2175;51.018;6.994;2023-03-13T13:49:12;16.30;1.00
4324;DHT22;2175;51.018;6.994;2023-03-13T13:52:16;16.30;1.00
4324;DHT22;2175;51.018;6.994;2023-03-13T13:54:33;16.30;1.00
4324;DHT22;2175;51.018;6.994;2023-03-13T13:57:26;16.40;1.00
4324;DHT22;2175;51.018;6.994;2023-03-13T14:00:18;16.50;1.00
4324;DHT22;2175;51.018;6.994;2023-03-13T14:02:50;16.60;1.00
4324;DHT22;2175;51.018;6.994;2023-03-13T14:05:24;16.60;1.00
4324;DHT22;2175;51.018;6.994;2023-03-13T14:13:29;16.60;1.00
4324;DHT22;2175;51.018;6.994;2023-03-13T14:15:55;16.70;1.00
4324;DHT22;2175;51.018;6.994;2023-03-13T14:18:25;16.70;1.00
4324;DHT22;2175;51.018;6.994;2023-03-13T14:21:00;16.60;1.00
4324;DHT22;2175;51.018;6.994;2023-03-13T14:25:54;16.70;1.00
4324;DHT22;2175;51.018;6.994;2023-03-13T14:28:27;16.90;1.00
4324;DHT22;2175;51.018;6.994;2023-03-13T14:30:55;16.70;1.00
4324;DHT22;2175;51.018;6.994;2023-03-13T14:33:23;16.70;1.00
4324;DHT22;2175;51.018;6.994;2023-03-13T14:35:51;16.70;1.00
4324;DHT22;2175;51.018;6.994;2023-03-13T14:38:18;16.70;1.00
4324;DHT22;2175;51.018;6.994;2023-03-13T14:40:44;16.60;1.00
4324;DHT22;2175;51.018;6.994;2023-03-13T14:43:36;16.50;1.00
4324;DHT22;2175;51.018;6.994;2023-03-13T14:46:14;16.50;1.00
4324;DHT22;2175;51.018;6.994;2023-03-13T14:48:49;16.40;1.00
4324;DHT22;2175;51.018;6.994;2023-03-13T14:51:24;16.30;1.00
4324;DHT22;2175;51.018;6.994;2023-03-13T14:54:00;16.20;1.00
4324;DHT22;2175;51.018;6.994;2023-03-13T14:56:39;16.10;1.00
4324;DHT22;2175;51.018;6.994;2023-03-13T14:59:18;16.30;1.00
4324;DHT22;2175;51.018;6.994;2023-03-13T15:02:13;16.20;1.00
4324;DHT22;2175;51.018;6.994;2023-03-13T15:04:54;16.10;1.00
4324;DHT22;2175;51.018;6.994;2023-03-13T15:07:26;16.20;1.00
4324;DHT22;2175;51.018;6.994;2023-03-13T15:09:52;16.20;1.00
4324;DHT22;2175;51.018;6.994;2023-03-13T15:12:21;16.10;1.00
4324;DHT22;2175;51.018;6.994;2023-03-13T15:14:50;16.10;1.00
4324;DHT22;2175;51.018;6.994;2023-03-13T15:17:24;16.20;1.00
4324;DHT22;2175;51.018;6.994;2023-03-13T15:19:53;16.10;1.00
4324;DHT22;2175;51.018;6.994;2023-03-13T15:22:29;16.10;1.00
4324;DHT22;2175;51.018;6.994;2023-03-13T15:24:59;16.10;1.00
4324;DHT22;2175;51.018;6.994;2023-03-13T15:27:25;16.20;1.00
4324;DHT22;2175;51.018;6.994;2023-03-13T15:29:53;16.20;99.90
4324;DHT22;2175;51.018;6.994;2023-03-13T15:32:28;16.20;99.90
4324;DHT22;2175;51.018;6.994;2023-03-13T15:34:56;16.20;99.90
4324;DHT22;2175;51.018;6.994;2023-03-13T15:37:24;16.30;99.90
4324;DHT22;2175;51.018;6.994;2023-03-13T15:39:50;16.30;1.00
4324;DHT22;2175;51.018;6.994;2023-03-13T15:42:16;16.20;99.90
4324;DHT22;2175;51.018;6.994;2023-03-13T15:44:41;16.20;99.90
4324;DHT22;2175;51.018;6.994;2023-03-13T15:47:17;16.20;99.90
4324;DHT22;2175;51.018;6.994;2023-03-13T15:49:45;16.20;1.00
4324;DHT22;2175;51.018;6.994;2023-03-13T15:52:19;16.20;18.20
4324;DHT22;2175;51.018;6.994;2023-03-13T15:54:48;16.20;99.90
4324;DHT22;2175;51.018;6.994;2023-03-13T15:57:24;16.20;99.90
4324;DHT22;2175;51.018;6.994;2023-03-13T15:59:52;16.20;99.90
4324;DHT22;2175;51.018;6.994;2023-03-13T16:02:21;16.40;3.20
4324;DHT22;2175;51.018;6.994;2023-03-13T16:04:46;16.50;1.00
4324;DHT22;2175;51.018;6.994;2023-03-13T16:07:19;16.60;1.00
4324;DHT22;2175;51.018;6.994;2023-03-13T16:09:46;16.60;1.00
4324;DHT22;2175;51.018;6.994;2023-03-13T16:12:14;16.60;1.00
4324;DHT22;2175;51.018;6.994;2023-03-13T16:14:40;16.40;1.00
4324;DHT22;2175;51.018;6.994;2023-03-13T16:17:15;16.20;42.40
4324;DHT22;2175;51.018;6.994;2023-03-13T16:19:42;16.10;27.60
4324;DHT22;2175;51.018;6.994;2023-03-13T16:22:07;16.00;1.00
4324;DHT22;2175;51.018;6.994;2023-03-13T16:24:33;15.80;1.00
4324;DHT22;2175;51.018;6.994;2023-03-13T16:26:59;15.80;1.00
4324;DHT22;2175;51.018;6.994;2023-03-13T16:29:24;15.80;1.00
4324;DHT22;2175;51.018;6.994;2023-03-13T16:31:50;15.70;41.40
4324;DHT22;2175;51.018;6.994;2023-03-13T16:34:17;15.60;1.00
4324;DHT22;2175;51.018;6.994;2023-03-13T16:36:43;15.50;99.90
4324;DHT22;2175;51.018;6.994;2023-03-13T16:39:13;15.40;99.90
4324;DHT22;2175;51.018;6.994;2023-03-13T16:41:40;15.30;99.90
4324;DHT22;2175;51.018;6.994;2023-03-13T16:44:43;15.30;99.90
4324;DHT22;2175;51.018;6.994;2023-03-13T17:34:17;14.80;1.00
4324;DHT22;2175;51.018;6.994;2023-03-13T17:36:48;14.80;1.00
4324;DHT22;2175;51.018;6.994;2023-03-13T17:43:04;14.70;1.00
4324;DHT22;2175;51.018;6.994;2023-03-13T17:45:43;14.70;99.90
4324;DHT22;2175;51.018;6.994;2023-03-13T17:48:11;14.70;1.00
4324;DHT22;2175;51.018;6.994;2023-03-13T17:50:37;14.60;1.00
4324;DHT22;2175;51.018;6.994;2023-03-13T17:53:04;14.50;1.00
4324;DHT22;2175;51.018;6.994;2023-03-13T17:55:29;14.50;68.40
4324;DHT22;2175;51.018;6.994;2023-03-13T17:57:55;14.50;99.90
4324;DHT22;2175;51.018;6.994;2023-03-13T18:00:26;14.40;18.30
4324;DHT22;2175;51.018;6.994;2023-03-13T18:02:56;14.30;99.90
4324;DHT22;2175;51.018;6.994;2023-03-13T18:05:23;14.30;99.90
4324;DHT22;2175;51.018;6.994;2023-03-13T18:07:49;14.20;99.90
4324;DHT22;2175;51.018;6.994;2023-03-13T18:10:17;14.10;1.00
4324;DHT22;2175;51.018;6.994;2023-03-13T18:12:43;14.00;99.90
4324;DHT22;2175;51.018;6.994;2023-03-13T18:15:09;14.00;1.00
4324;DHT22;2175;51.018;6.994;2023-03-13T18:17:34;14.10;99.90
4324;DHT22;2175;51.018;6.994;2023-03-13T18:20:00;14.10;99.90
4324;DHT22;2175;51.018;6.994;2023-03-13T18:22:25;14.10;99.90
4324;DHT22;2175;51.018;6.994;2023-03-13T18:24:51;14.20;99.90
4324;DHT22;2175;51.018;6.994;2023-03-13T18:27:18;14.20;99.90
4324;DHT22;2175;51.018;6.994;2023-03-13T18:29:46;14.20;99.90
4324;DHT22;2175;51.018;6.994;2023-03-13T18:32:15;14.10;99.90
4324;DHT22;2175;51.018;6.994;2023-03-13T18:34:41;14.10;1.00
4324;DHT22;2175;51.018;6.994;2023-03-13T18:37:21;14.00;99.90
4324;DHT22;2175;51.018;6.994;2023-03-13T18:39:48;14.00;99.90
4324;DHT22;2175;51.018;6.994;2023-03-13T18:42:16;14.00;1.00